sensor_id;sensor_type;location;lat;lon;timestamp;temperature;humidity
8178;DHT22;4130;48.740;9.132;2022-09-13T00:00:30;12.40;99.90
8178;DHT22;4130;48.740;9.132;2022-09-13T00:02:57;12.40;99.90
8178;DHT22;4130;48.740;9.132;2022-09-13T00:05:24;12.30;99.90
8178;DHT22;4130;48.740;9.132;2022-09-13T00:07:50;12.50;99.90
8178;DHT22;4130;48.740;9.132;2022-09-13T00:10:17;12.30;99.90
8178;DHT22;4130;48.740;9.132;2022-09-13T00:12:44;12.40;99.90
8178;DHT22;4130;48.740;9.132;2022-09-13T00:15:12;12.40;99.90
8178;DHT22;4130;48.740;9.132;2022-09-13T00:17:39;12.30;99.90
8178;DHT22;4130;48.740;9.132;2022-09-13T00:20:06;12.30;99.90
8178;DHT22;4130;48.740;9.132;2022-09-13T00:22:34;12.40;99.90
8178;DHT22;4130;48.740;9.132;2022-09-13T00:25:01;12.30;99.90
8178;DHT22;4130;48.740;9.132;2022-09-13T00:27:28;12.30;99.90
8178;DHT22;4130;48.740;9.132;2022-09-13T00:29:55;12.30;99.90
8178;DHT22;4130;48.740;9.132;2022-09-13T00:32:23;12.20;99.90
8178;DHT22;4130;48.740;9.132;2022-09-13T00:34:49;12.20;99.90
8178;DHT22;4130;48.740;9.132;2022-09-13T00:37:16;12.30;99.90
8178;DHT22;4130;48.740;9.132;2022-09-13T00:39:43;12.40;99.90
8178;DHT22;4130;48.740;9.132;2022-09-13T00:42:11;12.20;99.90
8178;DHT22;4130;48.740;9.132;2022-09-13T00:44:55;12.20;99.90
8178;DHT22;4130;48.740;9.132;2022-09-13T00:47:27;12.20;99.90
8178;DHT22;4130;48.740;9.132;2022-09-13T00:49:58;12.30;99.90
8178;DHT22;4130;48.740;9.132;2022-09-13T00:52:28;12.30;99.90
8178;DHT22;4130;48.740;9.132;2022-09-13T00:54:59;12.30;99.90
8178;DHT22;4130;48.740;9.132;2022-09-13T00:57:27;12.20;99.90
8178;DHT22;4130;48.740;9.132;2022-09-13T00:59:59;12.10;99.90
8178;DHT22;4130;48.740;9.132;2022-09-13T01:02:31;12.10;99.90
8178;DHT22;4130;48.740;9.132;2022-09-13T01:04:58;12.10;99.90
8178;DHT22;4130;48.740;9.132;2022-09-13T01:07:25;12.10;99.90
8178;DHT22;4130;48.740;9.132;2022-09-13T01:09:52;12.00;99.90
8178;DHT22;4130;48.740;9.132;2022-09-13T01:12:30;12.00;99.90
8178;DHT22;4130;48.740;9.132;2022-09-13T01:14:59;11.90;99.90
8178;DHT22;4130;48.740;9.132;2022-09-13T01:17:28;11.90;99.90
8178;DHT22;4130;48.740;9.132;2022-09-13T01:19:57;11.90;99.90
8178;DHT22;4130;48.740;9.132;2022-09-13T01:28:44;11.90;99.90
8178;DHT22;4130;48.740;9.132;2022-09-13T01:31:19;11.90;99.90
8178;DHT22;4130;48.740;9.132;2022-09-13T01:33:56;11.80;99.90
8178;DHT22;4130;48.740;9.132;2022-09-13T01:36:39;11.80;99.90
8178;DHT22;4130;48.740;9.132;2022-09-13T01:39:13;11.70;99.90
8178;DHT22;4130;48.740;9.132;2022-09-13T01:41:56;11.70;99.90
8178;DHT22;4130;48.740;9.132;2022-09-13T01:44:43;11.70;99.90
8178;DHT22;4130;48.740;9.132;2022-09-13T01:47:21;11.70;99.90
8178;DHT22;4130;48.740;9.132;2022-09-13T01:49:54;11.60;99.90
8178;DHT22;4130;48.740;9.132;2022-09-13T01:52:29;11.60;99.90
8178;DHT22;4130;48.740;9.132;2022-09-13T01:55:04;11.60;99.90
8178;DHT22;4130;48.740;9.132;2022-09-13T01:57:36;11.60;99.90
8178;DHT22;4130;48.740;9.132;2022-09-13T02:00:10;11.50;99.90
8178;DHT22;4130;48.740;9.132;2022-09-13T02:02:41;11.50;99.90
8178;DHT22;4130;48.740;9.132;2022-09-13T02:05:13;11.50;99.90
8178;DHT22;4130;48.740;9.132;2022-09-13T02:07:44;11.50;99.90
8178;DHT22;4130;48.740;9.132;2022-09-13T02:10:16;11.60;99.90
8178;DHT22;4130;48.740;9.132;2022-09-13T02:12:47;11.60;99.90
8178;DHT22;4130;48.740;9.132;2022-09-13T02:15:20;11.70;99.90
8178;DHT22;4130;48.740;9.132;2022-09-13T02:17:53;11.60;99.90
8178;DHT22;4130;48.740;9.132;2022-09-13T02:20:25;11.60;99.90
8178;DHT22;4130;48.740;9.132;2022-09-13T02:22:55;11.60;99.90
8178;DHT22;4130;48.740;9.132;2022-09-13T02:25:24;11.50;99.90
8178;DHT22;4130;48.740;9.132;2022-09-13T02:27:54;11.50;99.90
8178;DHT22;4130;48.740;9.132;2022-09-13T02:30:25;11.50;99.90
8178;DHT22;4130;48.740;9.132;2022-09-13T02:32:56;11.50;99.90
8178;DHT22;4130;48.740;9.132;2022-09-13T02:35:29;11.40;99.90
8178;DHT22;4130;48.740;9.132;2022-09-13T02:38:01;11.40;99.90
8178;DHT22;4130;48.740;9.132;2022-09-13T02:40:32;11.40;99.90
8178;DHT22;4130;48.740;9.132;2022-09-13T02:43:04;11.40;99.90
8178;DHT22;4130;48.740;9.132;2022-09-13T02:45:40;11.40;99.90
8178;DHT22;4130;48.740;9.132;2022-09-13T02:48:11;11.40;99.90
8178;DHT22;4130;48.740;9.132;2022-09-13T02:50:47;11.50;99.90
8178;DHT22;4130;48.740;9.132;2022-09-13T02:53:23;11.40;99.90
8178;DHT22;4130;48.740;9.132;2022-09-13T02:55:58;11.50;99.90
8178;DHT22;4130;48.740;9.132;2022-09-13T02:58:31;11.40;99.90
8178;DHT22;4130;48.740;9.132;2022-09-13T03:00:58;11.40;99.90
8178;DHT22;4130;48.740;9.132;2022-09-13T03:03:27;11.40;99.90
8178;DHT22;4130;48.740;9.132;2022-09-13T03:05:53;11.40;99.90
8178;DHT22;4130;48.740;9.132;2022-09-13T03:08:21;11.40;99.90
8178;DHT22;4130;48.740;9.132;2022-09-13T03:10:56;11.40;99.90
8178;DHT22;4130;48.740;9.132;2022-09-13T03:13:36;11.40;99.90
8178;DHT22;4130;48.740;9.132;2022-09-13T03:16:17;11.40;99.90
8178;DHT22;4130;48.740;9.132;2022-09-13T03:19:01;11.40;99.90
8178;DHT22;4130;48.740;9.132;2022-09-13T03:21:50;11.40;99.90
8178;DHT22;4130;48.740;9.132;2022-09-13T03:24:23;11.30;99.90
8178;DHT22;4130;48.740;9.132;2022-09-13T03:27:03;11.30;99.90
8178;DHT22;4130;48.740;9.132;2022-09-13T03:29:38;11.30;99.90
8178;DHT22;4130;48.740;9.132;2022-09-13T03:32:15;11.30;99.90
8178;DHT22;4130;48.740;9.132;2022-09-13T03:34:50;11.20;99.90
8178;DHT22;4130;48.740;9.132;2022-09-13T03:37:23;11.20;99.90
8178;DHT22;4130;48.740;9.132;2022-09-13T03:39:55;11.20;99.90
8178;DHT22;4130;48.740;9.132;2022-09-13T03:42:25;11.20;99.90
8178;DHT22;4130;48.740;9.132;2022-09-13T03:44:55;11.20;99.90
8178;DHT22;4130;48.740;9.132;2022-09-13T03:47:25;11.20;99.90
8178;DHT22;4130;48.740;9.132;2022-09-13T03:49:55;11.20;99.90
8178;DHT22;4130;48.740;9.132;2022-09-13T03:52:22;11.20;99.90
8178;DHT22;4130;48.740;9.132;2022-09-13T03:54:51;11.10;99.90
8178;DHT22;4130;48.740;9.132;2022-09-13T03:57:19;11.10;99.90
8178;DHT22;4130;48.740;9.132;2022-09-13T03:59:48;11.10;99.90
8178;DHT22;4130;48.740;9.132;2022-09-13T04:02:15;11.10;99.90
8178;DHT22;4130;48.740;9.132;2022-09-13T04:04:43;11.10;99.90
8178;DHT22;4130;48.740;9.132;2022-09-13T04:07:14;11.00;99.90
8178;DHT22;4130;48.740;9.132;2022-09-13T04:09:41;11.00;99.90
8178;DHT22;4130;48.740;9.132;2022-09-13T04:12:08;11.00;99.90
8178;DHT22;4130;48.740;9.132;2022-09-13T04:14:35;11.10;99.90
8178;DHT22;4130;48.740;9.132;2022-09-13T04:17:02;11.10;99.90
8178;DHT22;4130;48.740;9.132;2022-09-13T04:19:29;11.10;99.90
8178;DHT22;4130;48.740;9.132;2022-09-13T04:21:55;11.10;99.90
8178;DHT22;4130;48.740;9.132;2022-09-13T04:24:25;11.10;99.90
8178;DHT22;4130;48.740;9.132;2022-09-13T04:26:53;11.20;99.90
8178;DHT22;4130;48.740;9.132;2022-09-13T04:29:22;11.20;99.90
8178;DHT22;4130;48.740;9.132;2022-09-13T04:31:50;11.20;99.90
8178;DHT22;4130;48.740;9.132;2022-09-13T04:34:17;11.30;99.90
8178;DHT22;4130;48.740;9.132;2022-09-13T04:36:44;11.30;99.90
8178;DHT22;4130;48.740;9.132;2022-09-13T04:39:11;11.40;99.90
8178;DHT22;4130;48.740;9.132;2022-09-13T04:41:40;11.40;99.90
8178;DHT22;4130;48.740;9.132;2022-09-13T04:44:09;11.50;99.90
8178;DHT22;4130;48.740;9.132;2022-09-13T04:46:36;11.60;99.90
8178;DHT22;4130;48.740;9.132;2022-09-13T04:49:03;11.60;99.90
8178;DHT22;4130;48.740;9.132;2022-09-13T04:51:30;11.70;99.90
8178;DHT22;4130;48.740;9.132;2022-09-13T04:53:57;11.80;99.90
8178;DHT22;4130;48.740;9.132;2022-09-13T04:56:26;11.80;99.90
8178;DHT22;4130;48.740;9.132;2022-09-13T04:58:54;11.80;99.90
8178;DHT22;4130;48.740;9.132;2022-09-13T05:01:22;11.90;99.90
8178;DHT22;4130;48.740;9.132;2022-09-13T05:03:49;12.00;99.90
8178;DHT22;4130;48.740;9.132;2022-09-13T05:06:17;12.00;99.90
8178;DHT22;4130;48.740;9.132;2022-09-13T05:08:44;12.10;99.90
8178;DHT22;4130;48.740;9.132;2022-09-13T05:11:14;12.10;99.90
8178;DHT22;4130;48.740;9.132;2022-09-13T05:13:41;12.20;99.90
8178;DHT22;4130;48.740;9.132;2022-09-13T05:16:09;12.20;99.90
8178;DHT22;4130;48.740;9.132;2022-09-13T05:18:36;12.20;99.90
8178;DHT22;4130;48.740;9.132;2022-09-13T05:21:04;12.10;99.90
8178;DHT22;4130;48.740;9.132;2022-09-13T05:23:31;12.10;99.90
8178;DHT22;4130;48.740;9.132;2022-09-13T05:26:00;12.10;99.90
8178;DHT22;4130;48.740;9.132;2022-09-13T05:28:29;12.10;99.90
8178;DHT22;4130;48.740;9.132;2022-09-13T05:30:56;12.10;99.90
8178;DHT22;4130;48.740;9.132;2022-09-13T05:33:25;12.00;99.90
8178;DHT22;4130;48.740;9.132;2022-09-13T05:35:52;12.00;99.90
8178;DHT22;4130;48.740;9.132;2022-09-13T05:38:20;12.00;99.90
8178;DHT22;4130;48.740;9.132;2022-09-13T05:40:47;12.00;99.90
8178;DHT22;4130;48.740;9.132;2022-09-13T05:43:14;12.00;99.90
8178;DHT22;4130;48.740;9.132;2022-09-13T05:45:41;12.00;99.90
8178;DHT22;4130;48.740;9.132;2022-09-13T05:48:08;12.00;99.90
8178;DHT22;4130;48.740;9.132;2022-09-13T05:50:39;12.00;99.90
8178;DHT22;4130;48.740;9.132;2022-09-13T05:53:06;12.10;99.90
8178;DHT22;4130;48.740;9.132;2022-09-13T05:55:33;12.10;99.90
8178;DHT22;4130;48.740;9.132;2022-09-13T05:58:00;12.20;99.90
8178;DHT22;4130;48.740;9.132;2022-09-13T06:00:27;12.20;99.90
8178;DHT22;4130;48.740;9.132;2022-09-13T06:02:55;12.30;99.90
8178;DHT22;4130;48.740;9.132;2022-09-13T06:05:21;12.30;99.90
8178;DHT22;4130;48.740;9.132;2022-09-13T06:07:49;12.50;99.90
8178;DHT22;4130;48.740;9.132;2022-09-13T06:10:16;12.60;99.90
8178;DHT22;4130;48.740;9.132;2022-09-13T06:12:44;12.80;99.90
8178;DHT22;4130;48.740;9.132;2022-09-13T06:15:12;12.80;99.90
8178;DHT22;4130;48.740;9.132;2022-09-13T06:17:39;13.10;99.90
8178;DHT22;4130;48.740;9.132;2022-09-13T06:20:06;13.10;99.90
8178;DHT22;4130;48.740;9.132;2022-09-13T06:22:33;13.20;99.90
8178;DHT22;4130;48.740;9.132;2022-09-13T06:25:02;13.20;99.90
8178;DHT22;4130;48.740;9.132;2022-09-13T06:27:29;13.20;99.90
8178;DHT22;4130;48.740;9.132;2022-09-13T06:29:56;13.20;99.90
8178;DHT22;4130;48.740;9.132;2022-09-13T06:32:23;13.10;99.90
8178;DHT22;4130;48.740;9.132;2022-09-13T06:34:50;13.00;99.90
8178;DHT22;4130;48.740;9.132;2022-09-13T06:37:17;13.10;99.90
8178;DHT22;4130;48.740;9.132;2022-09-13T06:39:44;13.00;99.90
8178;DHT22;4130;48.740;9.132;2022-09-13T06:42:12;13.10;99.90
8178;DHT22;4130;48.740;9.132;2022-09-13T06:44:39;13.10;99.90
8178;DHT22;4130;48.740;9.132;2022-09-13T06:47:06;13.10;99.90
8178;DHT22;4130;48.740;9.132;2022-09-13T06:49:32;13.20;99.90
8178;DHT22;4130;48.740;9.132;2022-09-13T06:51:59;13.20;99.90
8178;DHT22;4130;48.740;9.132;2022-09-13T06:54:26;13.30;99.90
8178;DHT22;4130;48.740;9.132;2022-09-13T06:56:53;13.30;99.90
8178;DHT22;4130;48.740;9.132;2022-09-13T06:59:21;13.40;99.90
8178;DHT22;4130;48.740;9.132;2022-09-13T07:01:48;13.60;99.90
8178;DHT22;4130;48.740;9.132;2022-09-13T07:04:16;13.60;99.90
8178;DHT22;4130;48.740;9.132;2022-09-13T07:06:45;13.70;99.90
8178;DHT22;4130;48.740;9.132;2022-09-13T07:09:16;13.90;99.90
8178;DHT22;4130;48.740;9.132;2022-09-13T07:11:44;14.10;99.90
8178;DHT22;4130;48.740;9.132;2022-09-13T07:14:12;14.30;99.90
8178;DHT22;4130;48.740;9.132;2022-09-13T07:16:42;14.60;99.90
8178;DHT22;4130;48.740;9.132;2022-09-13T07:19:12;14.90;99.90
8178;DHT22;4130;48.740;9.132;2022-09-13T07:21:39;15.10;99.90
8178;DHT22;4130;48.740;9.132;2022-09-13T07:24:06;15.40;99.90
8178;DHT22;4130;48.740;9.132;2022-09-13T07:26:33;15.60;99.90
8178;DHT22;4130;48.740;9.132;2022-09-13T07:29:03;15.80;99.90
8178;DHT22;4130;48.740;9.132;2022-09-13T07:31:31;15.90;99.90
8178;DHT22;4130;48.740;9.132;2022-09-13T07:34:01;16.10;99.90
8178;DHT22;4130;48.740;9.132;2022-09-13T07:36:29;16.30;99.90
8178;DHT22;4130;48.740;9.132;2022-09-13T07:38:57;16.50;99.90
8178;DHT22;4130;48.740;9.132;2022-09-13T07:41:26;16.70;99.90
8178;DHT22;4130;48.740;9.132;2022-09-13T07:43:53;16.80;99.90
8178;DHT22;4130;48.740;9.132;2022-09-13T07:46:22;17.00;99.90
8178;DHT22;4130;48.740;9.132;2022-09-13T07:48:51;17.10;99.90
8178;DHT22;4130;48.740;9.132;2022-09-13T07:51:21;17.30;99.90
8178;DHT22;4130;48.740;9.132;2022-09-13T07:53:49;17.50;99.90
8178;DHT22;4130;48.740;9.132;2022-09-13T07:56:17;17.70;99.90
8178;DHT22;4130;48.740;9.132;2022-09-13T07:58:47;17.90;99.90
8178;DHT22;4130;48.740;9.132;2022-09-13T08:01:15;18.20;99.90
8178;DHT22;4130;48.740;9.132;2022-09-13T08:03:43;18.50;99.90
8178;DHT22;4130;48.740;9.132;2022-09-13T08:06:10;18.90;99.90
8178;DHT22;4130;48.740;9.132;2022-09-13T08:08:38;19.20;99.90
8178;DHT22;4130;48.740;9.132;2022-09-13T08:11:06;19.60;99.90
8178;DHT22;4130;48.740;9.132;2022-09-13T08:13:33;19.90;99.90
8178;DHT22;4130;48.740;9.132;2022-09-13T08:16:04;20.30;99.90
8178;DHT22;4130;48.740;9.132;2022-09-13T08:18:32;20.60;99.90
8178;DHT22;4130;48.740;9.132;2022-09-13T08:20:59;20.80;99.90
8178;DHT22;4130;48.740;9.132;2022-09-13T08:23:27;21.00;99.90
8178;DHT22;4130;48.740;9.132;2022-09-13T08:25:59;21.20;99.90
8178;DHT22;4130;48.740;9.132;2022-09-13T08:28:27;21.40;99.90
8178;DHT22;4130;48.740;9.132;2022-09-13T08:30:53;21.40;99.90
8178;DHT22;4130;48.740;9.132;2022-09-13T08:33:20;21.50;99.90
8178;DHT22;4130;48.740;9.132;2022-09-13T08:35:51;21.40;99.90
8178;DHT22;4130;48.740;9.132;2022-09-13T08:38:18;21.30;99.90
8178;DHT22;4130;48.740;9.132;2022-09-13T08:40:48;21.20;99.90
8178;DHT22;4130;48.740;9.132;2022-09-13T08:43:20;21.30;99.90
8178;DHT22;4130;48.740;9.132;2022-09-13T08:45:58;21.60;99.90
8178;DHT22;4130;48.740;9.132;2022-09-13T08:48:31;21.80;99.90
8178;DHT22;4130;48.740;9.132;2022-09-13T08:51:02;21.90;99.90
8178;DHT22;4130;48.740;9.132;2022-09-13T08:53:31;22.20;99.90
8178;DHT22;4130;48.740;9.132;2022-09-13T08:56:04;22.20;99.90
8178;DHT22;4130;48.740;9.132;2022-09-13T08:58:44;22.40;99.90
8178;DHT22;4130;48.740;9.132;2022-09-13T09:01:24;22.50;99.90
8178;DHT22;4130;48.740;9.132;2022-09-13T09:03:57;22.30;99.90
8178;DHT22;4130;48.740;9.132;2022-09-13T09:06:28;22.20;99.90
8178;DHT22;4130;48.740;9.132;2022-09-13T09:09:00;22.20;99.90
8178;DHT22;4130;48.740;9.132;2022-09-13T09:11:31;22.50;99.90
8178;DHT22;4130;48.740;9.132;2022-09-13T09:14:06;22.90;99.90
8178;DHT22;4130;48.740;9.132;2022-09-13T09:16:38;23.50;99.90
8178;DHT22;4130;48.740;9.132;2022-09-13T09:19:16;24.30;99.90
8178;DHT22;4130;48.740;9.132;2022-09-13T09:21:45;24.80;99.90
8178;DHT22;4130;48.740;9.132;2022-09-13T09:24:19;24.80;99.90
8178;DHT22;4130;48.740;9.132;2022-09-13T09:26:46;24.90;99.90
8178;DHT22;4130;48.740;9.132;2022-09-13T09:29:18;24.90;99.90
8178;DHT22;4130;48.740;9.132;2022-09-13T09:31:53;24.90;99.90
8178;DHT22;4130;48.740;9.132;2022-09-13T09:34:32;25.00;99.90
8178;DHT22;4130;48.740;9.132;2022-09-13T09:37:13;25.30;99.90
8178;DHT22;4130;48.740;9.132;2022-09-13T09:39:42;26.00;99.90
8178;DHT22;4130;48.740;9.132;2022-09-13T09:42:12;26.10;99.60
8178;DHT22;4130;48.740;9.132;2022-09-13T09:44:46;26.30;99.90
8178;DHT22;4130;48.740;9.132;2022-09-13T09:47:17;26.50;99.00
8178;DHT22;4130;48.740;9.132;2022-09-13T09:49:46;26.40;97.60
8178;DHT22;4130;48.740;9.132;2022-09-13T09:52:36;26.80;97.20
8178;DHT22;4130;48.740;9.132;2022-09-13T09:55:14;27.10;97.30
8178;DHT22;4130;48.740;9.132;2022-09-13T09:57:53;27.70;97.30
8178;DHT22;4130;48.740;9.132;2022-09-13T10:00:23;27.90;95.70
8178;DHT22;4130;48.740;9.132;2022-09-13T10:02:53;28.00;95.70
8178;DHT22;4130;48.740;9.132;2022-09-13T10:05:22;28.10;95.50
8178;DHT22;4130;48.740;9.132;2022-09-13T10:07:56;28.00;96.00
8178;DHT22;4130;48.740;9.132;2022-09-13T10:10:26;27.70;94.50
8178;DHT22;4130;48.740;9.132;2022-09-13T10:12:56;27.50;93.90
8178;DHT22;4130;48.740;9.132;2022-09-13T10:15:27;27.30;95.10
8178;DHT22;4130;48.740;9.132;2022-09-13T10:18:13;27.10;92.80
8178;DHT22;4130;48.740;9.132;2022-09-13T10:20:41;27.00;92.80
8178;DHT22;4130;48.740;9.132;2022-09-13T10:23:11;27.20;93.60
8178;DHT22;4130;48.740;9.132;2022-09-13T10:25:42;27.20;92.40
8178;DHT22;4130;48.740;9.132;2022-09-13T10:28:14;26.80;92.40
8178;DHT22;4130;48.740;9.132;2022-09-13T10:30:46;27.00;92.70
8178;DHT22;4130;48.740;9.132;2022-09-13T10:33:32;27.00;92.00
8178;DHT22;4130;48.740;9.132;2022-09-13T10:36:02;27.30;92.40
8178;DHT22;4130;48.740;9.132;2022-09-13T10:38:32;27.50;91.90
8178;DHT22;4130;48.740;9.132;2022-09-13T10:41:01;27.60;91.60
8178;DHT22;4130;48.740;9.132;2022-09-13T10:43:30;27.60;92.30
8178;DHT22;4130;48.740;9.132;2022-09-13T10:46:00;28.10;92.10
8178;DHT22;4130;48.740;9.132;2022-09-13T10:48:29;28.20;91.40
8178;DHT22;4130;48.740;9.132;2022-09-13T10:51:05;28.20;91.70
8178;DHT22;4130;48.740;9.132;2022-09-13T10:53:36;28.50;91.00
8178;DHT22;4130;48.740;9.132;2022-09-13T10:56:04;28.70;90.50
8178;DHT22;4130;48.740;9.132;2022-09-13T10:58:31;28.90;90.20
8178;DHT22;4130;48.740;9.132;2022-09-13T11:01:15;29.10;90.40
8178;DHT22;4130;48.740;9.132;2022-09-13T11:04:32;29.20;89.50
8178;DHT22;4130;48.740;9.132;2022-09-13T11:07:17;29.60;86.40
8178;DHT22;4130;48.740;9.132;2022-09-13T11:09:51;30.20;86.50
8178;DHT22;4130;48.740;9.132;2022-09-13T11:12:27;30.40;83.40
8178;DHT22;4130;48.740;9.132;2022-09-13T11:15:05;30.00;83.60
8178;DHT22;4130;48.740;9.132;2022-09-13T11:17:57;29.50;83.90
8178;DHT22;4130;48.740;9.132;2022-09-13T11:20:35;29.20;85.80
8178;DHT22;4130;48.740;9.132;2022-09-13T11:26:11;29.50;84.40
8178;DHT22;4130;48.740;9.132;2022-09-13T11:28:52;29.50;84.30
8178;DHT22;4130;48.740;9.132;2022-09-13T11:31:34;29.30;84.00
8178;DHT22;4130;48.740;9.132;2022-09-13T11:34:28;29.30;82.60
8178;DHT22;4130;48.740;9.132;2022-09-13T11:37:13;29.30;84.20
8178;DHT22;4130;48.740;9.132;2022-09-13T11:39:46;29.10;83.00
8178;DHT22;4130;48.740;9.132;2022-09-13T11:42:23;29.40;82.60
8178;DHT22;4130;48.740;9.132;2022-09-13T11:45:07;29.80;83.20
8178;DHT22;4130;48.740;9.132;2022-09-13T11:47:58;29.90;82.00
8178;DHT22;4130;48.740;9.132;2022-09-13T11:50:34;29.70;82.30
8178;DHT22;4130;48.740;9.132;2022-09-13T11:53:37;29.80;80.00
8178;DHT22;4130;48.740;9.132;2022-09-13T11:56:09;29.70;82.60
8178;DHT22;4130;48.740;9.132;2022-09-13T11:58:43;30.00;81.90
8178;DHT22;4130;48.740;9.132;2022-09-13T12:01:16;30.30;83.20
8178;DHT22;4130;48.740;9.132;2022-09-13T12:03:50;30.30;81.10
8178;DHT22;4130;48.740;9.132;2022-09-13T12:06:24;30.30;80.70
8178;DHT22;4130;48.740;9.132;2022-09-13T12:08:55;30.10;82.90
8178;DHT22;4130;48.740;9.132;2022-09-13T12:11:25;29.70;82.20
8178;DHT22;4130;48.740;9.132;2022-09-13T12:13:55;29.50;82.60
8178;DHT22;4130;48.740;9.132;2022-09-13T12:16:28;29.10;83.10
8178;DHT22;4130;48.740;9.132;2022-09-13T12:18:58;28.50;83.80
8178;DHT22;4130;48.740;9.132;2022-09-13T12:21:29;28.50;85.70
8178;DHT22;4130;48.740;9.132;2022-09-13T12:24:02;28.50;84.80
8178;DHT22;4130;48.740;9.132;2022-09-13T12:26:36;28.60;84.40
8178;DHT22;4130;48.740;9.132;2022-09-13T12:29:10;28.80;83.10
8178;DHT22;4130;48.740;9.132;2022-09-13T12:31:39;29.00;84.60
8178;DHT22;4130;48.740;9.132;2022-09-13T12:34:10;29.10;85.10
8178;DHT22;4130;48.740;9.132;2022-09-13T12:37:11;29.40;82.70
8178;DHT22;4130;48.740;9.132;2022-09-13T12:40:14;29.50;83.70
8178;DHT22;4130;48.740;9.132;2022-09-13T12:43:06;29.50;83.60
8178;DHT22;4130;48.740;9.132;2022-09-13T12:45:59;29.50;83.30
8178;DHT22;4130;48.740;9.132;2022-09-13T12:48:46;29.30;84.10
8178;DHT22;4130;48.740;9.132;2022-09-13T12:51:27;29.20;84.00
8178;DHT22;4130;48.740;9.132;2022-09-13T12:54:41;29.20;82.60
8178;DHT22;4130;48.740;9.132;2022-09-13T12:57:20;28.90;82.60
8178;DHT22;4130;48.740;9.132;2022-09-13T13:00:08;28.70;84.80
8178;DHT22;4130;48.740;9.132;2022-09-13T13:02:39;28.90;82.20
8178;DHT22;4130;48.740;9.132;2022-09-13T13:05:19;29.40;84.50
8178;DHT22;4130;48.740;9.132;2022-09-13T13:07:51;29.70;82.60
8178;DHT22;4130;48.740;9.132;2022-09-13T13:10:28;29.70;82.50
8178;DHT22;4130;48.740;9.132;2022-09-13T13:13:09;29.80;82.00
8178;DHT22;4130;48.740;9.132;2022-09-13T13:16:01;29.70;82.40
8178;DHT22;4130;48.740;9.132;2022-09-13T13:18:30;29.60;81.80
8178;DHT22;4130;48.740;9.132;2022-09-13T13:21:31;29.30;82.30
8178;DHT22;4130;48.740;9.132;2022-09-13T13:24:41;29.30;81.40
8178;DHT22;4130;48.740;9.132;2022-09-13T13:27:37;29.60;81.30
8178;DHT22;4130;48.740;9.132;2022-09-13T13:30:41;30.10;80.20
8178;DHT22;4130;48.740;9.132;2022-09-13T13:33:20;30.50;79.90
8178;DHT22;4130;48.740;9.132;2022-09-13T13:35:48;30.70;78.70
8178;DHT22;4130;48.740;9.132;2022-09-13T13:38:46;30.70;79.60
8178;DHT22;4130;48.740;9.132;2022-09-13T13:41:46;30.90;79.70
8178;DHT22;4130;48.740;9.132;2022-09-13T13:48:09;30.70;79.70
8178;DHT22;4130;48.740;9.132;2022-09-13T13:53:43;29.80;79.00
8178;DHT22;4130;48.740;9.132;2022-09-13T13:56:27;29.50;78.00
8178;DHT22;4130;48.740;9.132;2022-09-13T13:58:57;29.30;79.90
8178;DHT22;4130;48.740;9.132;2022-09-13T14:01:27;29.10;80.50
8178;DHT22;4130;48.740;9.132;2022-09-13T14:04:40;29.20;79.60
8178;DHT22;4130;48.740;9.132;2022-09-13T14:07:20;29.20;78.40
8178;DHT22;4130;48.740;9.132;2022-09-13T14:09:58;29.20;79.60
8178;DHT22;4130;48.740;9.132;2022-09-13T14:12:33;29.20;78.20
8178;DHT22;4130;48.740;9.132;2022-09-13T14:15:16;29.30;79.10
8178;DHT22;4130;48.740;9.132;2022-09-13T14:17:58;29.50;78.10
8178;DHT22;4130;48.740;9.132;2022-09-13T14:20:29;29.70;77.90
8178;DHT22;4130;48.740;9.132;2022-09-13T14:23:12;29.70;79.10
8178;DHT22;4130;48.740;9.132;2022-09-13T14:25:42;29.70;77.80
8178;DHT22;4130;48.740;9.132;2022-09-13T14:28:13;29.60;77.90
8178;DHT22;4130;48.740;9.132;2022-09-13T14:30:44;29.90;77.60
8178;DHT22;4130;48.740;9.132;2022-09-13T14:33:20;30.00;76.30
8178;DHT22;4130;48.740;9.132;2022-09-13T14:35:57;30.10;77.30
8178;DHT22;4130;48.740;9.132;2022-09-13T14:38:26;30.00;76.60
8178;DHT22;4130;48.740;9.132;2022-09-13T14:40:59;29.90;76.90
8178;DHT22;4130;48.740;9.132;2022-09-13T14:43:28;29.70;75.30
8178;DHT22;4130;48.740;9.132;2022-09-13T14:45:59;29.60;76.20
8178;DHT22;4130;48.740;9.132;2022-09-13T14:48:31;29.40;76.90
8178;DHT22;4130;48.740;9.132;2022-09-13T14:51:03;29.30;76.40
8178;DHT22;4130;48.740;9.132;2022-09-13T14:53:34;29.30;76.90
8178;DHT22;4130;48.740;9.132;2022-09-13T14:56:04;29.10;76.80
8178;DHT22;4130;48.740;9.132;2022-09-13T14:58:37;29.10;76.90
8178;DHT22;4130;48.740;9.132;2022-09-13T15:01:08;28.90;77.20
8178;DHT22;4130;48.740;9.132;2022-09-13T15:03:40;28.80;77.50
8178;DHT22;4130;48.740;9.132;2022-09-13T15:06:19;28.70;77.70
8178;DHT22;4130;48.740;9.132;2022-09-13T15:08:47;28.50;77.10
8178;DHT22;4130;48.740;9.132;2022-09-13T15:11:25;28.40;77.60
8178;DHT22;4130;48.740;9.132;2022-09-13T15:14:01;28.30;76.00
8178;DHT22;4130;48.740;9.132;2022-09-13T15:16:29;28.10;75.90
8178;DHT22;4130;48.740;9.132;2022-09-13T15:22:00;28.20;76.30
8178;DHT22;4130;48.740;9.132;2022-09-13T15:24:30;28.10;75.80
8178;DHT22;4130;48.740;9.132;2022-09-13T15:27:02;28.20;74.90
8178;DHT22;4130;48.740;9.132;2022-09-13T15:29:29;28.20;74.60
8178;DHT22;4130;48.740;9.132;2022-09-13T15:31:59;28.10;73.00
8178;DHT22;4130;48.740;9.132;2022-09-13T15:34:27;27.90;74.70
8178;DHT22;4130;48.740;9.132;2022-09-13T15:37:11;27.90;75.10
8178;DHT22;4130;48.740;9.132;2022-09-13T15:39:46;27.70;76.10
8178;DHT22;4130;48.740;9.132;2022-09-13T15:42:14;27.60;76.70
8178;DHT22;4130;48.740;9.132;2022-09-13T15:44:42;27.40;76.70
8178;DHT22;4130;48.740;9.132;2022-09-13T15:47:10;27.30;77.80
8178;DHT22;4130;48.740;9.132;2022-09-13T15:49:47;27.20;77.30
8178;DHT22;4130;48.740;9.132;2022-09-13T15:52:16;27.10;78.80
8178;DHT22;4130;48.740;9.132;2022-09-13T15:54:47;27.00;77.50
8178;DHT22;4130;48.740;9.132;2022-09-13T15:57:17;26.80;78.60
8178;DHT22;4130;48.740;9.132;2022-09-13T15:59:45;26.80;79.90
8178;DHT22;4130;48.740;9.132;2022-09-13T16:02:19;26.50;79.20
8178;DHT22;4130;48.740;9.132;2022-09-13T16:04:46;26.30;79.90
8178;DHT22;4130;48.740;9.132;2022-09-13T16:07:15;26.20;80.40
8178;DHT22;4130;48.740;9.132;2022-09-13T16:09:42;26.10;81.10
8178;DHT22;4130;48.740;9.132;2022-09-13T16:12:09;26.00;82.00
8178;DHT22;4130;48.740;9.132;2022-09-13T16:14:36;26.00;82.70
8178;DHT22;4130;48.740;9.132;2022-09-13T16:17:05;25.90;82.70
8178;DHT22;4130;48.740;9.132;2022-09-13T16:19:32;25.70;84.10
8178;DHT22;4130;48.740;9.132;2022-09-13T16:21:59;25.70;83.80
8178;DHT22;4130;48.740;9.132;2022-09-13T16:24:27;25.60;84.50
8178;DHT22;4130;48.740;9.132;2022-09-13T16:26:54;25.50;86.20
8178;DHT22;4130;48.740;9.132;2022-09-13T16:29:21;25.40;86.90
8178;DHT22;4130;48.740;9.132;2022-09-13T16:31:47;25.20;87.80
8178;DHT22;4130;48.740;9.132;2022-09-13T16:34:14;25.10;89.00
8178;DHT22;4130;48.740;9.132;2022-09-13T16:36:41;25.00;89.40
8178;DHT22;4130;48.740;9.132;2022-09-13T16:39:08;24.80;89.40
8178;DHT22;4130;48.740;9.132;2022-09-13T16:41:37;24.70;90.00
8178;DHT22;4130;48.740;9.132;2022-09-13T16:44:04;24.60;90.20
8178;DHT22;4130;48.740;9.132;2022-09-13T16:46:31;24.50;89.80
8178;DHT22;4130;48.740;9.132;2022-09-13T16:48:58;24.30;90.10
8178;DHT22;4130;48.740;9.132;2022-09-13T16:51:25;24.20;90.20
8178;DHT22;4130;48.740;9.132;2022-09-13T16:53:52;24.10;90.40